createdAt,value
2018-07-24T01:25:45.265Z,15.43
2018-07-24T01:28:12.112Z,14.20
2018-07-24T01:30:38.935Z,14.47
2018-07-24T01:33:05.761Z,15.98
2018-07-24T01:35:32.602Z,14.97
2018-07-24T01:37:59.431Z,16.83
2018-07-24T01:40:26.318Z,14.87
2018-07-24T01:42:53.135Z,15.03
2018-07-24T01:45:19.981Z,14.63
2018-07-24T01:47:46.811Z,14.27
2018-07-24T01:50:13.698Z,14.27
2018-07-24T01:52:40.525Z,15.28
2018-07-24T01:55:07.356Z,18.10
2018-07-24T01:57:34.194Z,14.87
2018-07-24T02:00:01.072Z,15.00
2018-07-24T02:02:27.897Z,17.10
2018-07-24T02:04:54.724Z,16.27
2018-07-24T02:07:21.604Z,15.00
2018-07-24T02:09:48.453Z,15.33
2018-07-24T02:12:15.281Z,15.53
2018-07-24T02:14:42.129Z,15.32
2018-07-24T02:17:09.679Z,13.30
2018-07-24T02:19:36.628Z,15.10
2018-07-24T02:22:03.456Z,14.97
2018-07-24T02:24:30.281Z,14.00
2018-07-24T02:26:57.122Z,15.20
2018-07-24T02:29:24.001Z,14.68
2018-07-24T02:31:50.867Z,14.90
2018-07-24T02:34:17.663Z,15.80
2018-07-24T02:36:44.510Z,13.03
2018-07-24T02:39:11.378Z,14.40
2018-07-24T02:41:38.210Z,14.73
2018-07-24T02:44:05.044Z,15.00
2018-07-24T02:46:31.861Z,14.63
2018-07-24T02:48:58.750Z,15.33
2018-07-24T02:51:25.582Z,14.58
2018-07-24T02:53:52.409Z,16.30
2018-07-24T02:56:19.253Z,14.45
2018-07-24T02:58:46.122Z,13.78
2018-07-24T03:01:12.954Z,15.38
2018-07-24T03:03:39.777Z,14.70
2018-07-24T03:06:06.646Z,14.23
2018-07-24T03:08:33.492Z,16.10
2018-07-24T03:11:00.320Z,16.47
2018-07-24T03:13:27.153Z,15.83
2018-07-24T03:15:53.988Z,14.83
2018-07-24T03:18:20.826Z,18.70
2018-07-24T03:20:47.653Z,15.20
2018-07-24T03:23:14.489Z,13.93
2018-07-24T03:25:41.306Z,14.00
2018-07-24T03:28:08.143Z,14.50
2018-07-24T03:30:34.971Z,15.33
2018-07-24T03:33:01.798Z,14.03
2018-07-24T03:35:28.622Z,15.45
2018-07-24T03:37:55.450Z,16.65
2018-07-24T03:40:22.444Z,17.47
2018-07-24T03:42:49.282Z,15.83
2018-07-24T03:45:16.117Z,16.53
2018-07-24T03:47:42.946Z,18.40
2018-07-24T03:50:09.817Z,16.80
2018-07-24T03:52:36.670Z,17.50
2018-07-24T03:55:03.492Z,16.87
2018-07-24T03:57:30.330Z,17.57
2018-07-24T03:59:57.194Z,16.82
2018-07-24T04:02:24.029Z,18.87
2018-07-24T04:04:50.862Z,21.85
2018-07-24T04:07:17.698Z,19.73
2018-07-24T04:09:44.567Z,21.33
2018-07-24T04:12:11.394Z,17.83
2018-07-24T04:14:38.236Z,16.07
2018-07-24T04:17:05.062Z,20.47
2018-07-24T04:19:31.943Z,22.13
2018-07-24T04:21:58.778Z,20.00
2018-07-24T04:24:25.608Z,19.03
2018-07-24T04:26:52.437Z,18.48
2018-07-24T04:29:19.296Z,20.05
2018-07-24T04:31:46.109Z,22.47
2018-07-24T04:34:12.936Z,20.90
2018-07-24T04:36:39.777Z,19.90
2018-07-24T04:39:06.687Z,16.53
2018-07-24T04:41:33.522Z,15.27
2018-07-24T04:44:00.369Z,15.43
2018-07-24T04:46:27.191Z,15.50
2018-07-24T04:48:54.044Z,16.20
2018-07-24T04:51:20.883Z,16.83
2018-07-24T04:53:47.701Z,23.63
2018-07-24T04:56:14.548Z,16.73
2018-07-24T04:58:41.419Z,25.63
2018-07-24T05:01:08.263Z,18.80
2018-07-24T05:03:35.087Z,21.50
2018-07-24T05:06:01.974Z,18.33
2018-07-24T05:08:28.999Z,19.82
2018-07-24T05:10:55.842Z,20.53
2018-07-24T05:13:22.676Z,25.72
2018-07-24T05:15:49.521Z,23.02
2018-07-24T05:18:16.348Z,19.50
2018-07-24T05:20:43.185Z,19.63
2018-07-24T05:23:10.013Z,21.20
2018-07-24T05:25:36.844Z,18.43
2018-07-24T05:28:03.669Z,22.73
2018-07-24T05:30:30.516Z,19.93
2018-07-24T05:32:57.363Z,20.37
2018-07-24T05:35:24.192Z,21.68
2018-07-24T05:37:51.022Z,22.50
2018-07-24T05:40:17.968Z,21.77
2018-07-24T05:42:44.782Z,20.30
2018-07-24T05:45:11.618Z,19.93
2018-07-24T05:47:38.585Z,23.17
2018-07-24T05:50:05.908Z,22.10
2018-07-24T05:52:32.714Z,20.30
2018-07-24T05:54:59.584Z,20.80
2018-07-24T05:57:26.379Z,21.83
2018-07-24T05:59:53.315Z,22.03
2018-07-24T06:02:20.143Z,19.70
2018-07-24T06:04:46.971Z,21.70
2018-07-24T06:07:13.827Z,25.72
2018-07-24T06:09:40.683Z,24.32
2018-07-24T06:12:07.862Z,19.20
2018-07-24T06:14:34.772Z,22.75
2018-07-24T06:17:01.677Z,24.60
2018-07-24T06:19:28.501Z,19.32
2018-07-24T06:21:55.611Z,21.80
2018-07-24T06:24:22.863Z,24.80
2018-07-24T06:26:49.715Z,23.20
2018-07-24T06:29:16.594Z,21.00
2018-07-24T06:31:43.376Z,32.40
2018-07-24T06:34:10.222Z,22.65
2018-07-24T06:36:37.047Z,22.20
2018-07-24T06:39:04.032Z,25.33
2018-07-24T06:41:30.854Z,24.20
2018-07-24T06:43:57.692Z,24.77
2018-07-24T06:46:24.555Z,20.70
2018-07-24T06:48:51.594Z,21.10
2018-07-24T06:51:18.494Z,21.83
2018-07-24T06:53:45.282Z,27.53
2018-07-24T06:56:12.136Z,27.53
2018-07-24T06:58:38.982Z,25.82
2018-07-24T07:01:05.809Z,22.70
2018-07-24T07:03:32.633Z,30.92
2018-07-24T07:05:59.519Z,21.30
2018-07-24T07:08:26.563Z,20.93
2018-07-24T07:10:53.435Z,22.27
2018-07-24T07:13:20.253Z,26.83
2018-07-24T07:15:47.098Z,20.80
2018-07-24T07:18:13.938Z,21.43
2018-07-24T07:20:40.761Z,22.97
2018-07-24T07:23:07.577Z,23.97
2018-07-24T07:25:34.407Z,27.63
2018-07-24T07:28:01.230Z,21.33
2018-07-24T07:30:28.240Z,20.20
2018-07-24T07:32:55.115Z,20.77
2018-07-24T07:35:22.225Z,20.60
2018-07-24T07:37:49.181Z,24.82
2018-07-24T07:40:16.127Z,23.65
2018-07-24T07:42:42.946Z,20.52
2018-07-24T07:45:10.191Z,25.05
2018-07-24T07:47:37.024Z,22.13
2018-07-24T07:50:04.157Z,22.60
2018-07-24T07:52:31.929Z,24.70
2018-07-24T07:54:58.701Z,20.82
2018-07-24T07:57:25.559Z,25.13
2018-07-24T07:59:52.689Z,20.83
2018-07-24T08:02:20.973Z,21.87
2018-07-24T08:04:47.811Z,21.77
2018-07-24T08:07:14.774Z,19.52
2018-07-24T08:09:41.737Z,21.00
2018-07-24T08:12:09.536Z,22.10
2018-07-24T08:14:36.359Z,21.37
2018-07-24T08:17:03.225Z,20.12
2018-07-24T08:19:30.079Z,17.60
2018-07-24T08:21:56.912Z,17.80
2018-07-24T08:24:23.754Z,20.10
2018-07-24T08:26:50.653Z,19.03
2018-07-24T08:29:18.023Z,18.60
2018-07-24T08:31:45.194Z,18.53
2018-07-24T08:34:12.026Z,20.20
2018-07-24T08:36:38.901Z,18.12
2018-07-24T08:39:05.882Z,17.20
2018-07-24T08:41:32.734Z,21.05
2018-07-24T08:43:59.915Z,31.90
2018-07-24T08:46:27.899Z,18.90
2018-07-24T08:48:55.306Z,19.53
2018-07-24T08:51:22.149Z,27.83
2018-07-24T08:53:49.591Z,27.63
2018-07-24T08:56:16.357Z,25.10
2018-07-24T08:58:43.293Z,22.20
2018-07-24T09:01:10.123Z,21.95
2018-07-24T09:03:37.347Z,21.97
2018-07-24T09:06:04.127Z,32.57
2018-07-24T09:08:31.073Z,24.45
2018-07-24T09:10:58.153Z,21.37
2018-07-24T09:13:24.963Z,19.90
2018-07-24T09:15:51.785Z,22.62
2018-07-24T09:18:18.720Z,33.08
2018-07-24T09:20:46.538Z,33.98
2018-07-24T09:23:13.567Z,25.93
2018-07-24T09:25:40.406Z,30.05
2018-07-24T09:28:07.237Z,30.17
2018-07-24T09:30:34.204Z,35.45
2018-07-24T09:33:01.007Z,41.40
2018-07-24T09:35:27.835Z,25.70
2018-07-24T09:37:54.668Z,21.70
2018-07-24T09:40:21.616Z,21.67
2018-07-24T09:42:48.404Z,24.17
2018-07-24T09:45:15.237Z,18.90
2018-07-24T09:47:42.063Z,22.47
2018-07-24T09:50:08.925Z,22.52
2018-07-24T09:52:35.760Z,16.85
2018-07-24T09:55:02.596Z,18.00
2018-07-24T09:57:29.439Z,24.50
2018-07-24T09:59:56.299Z,20.90
2018-07-24T10:02:23.463Z,19.00
2018-07-24T10:04:50.375Z,18.87
2018-07-24T10:07:17.214Z,16.40
2018-07-24T10:09:44.083Z,19.87
2018-07-24T10:12:10.943Z,30.40
2018-07-24T10:14:37.770Z,23.30
2018-07-24T10:17:04.675Z,26.57
2018-07-24T10:19:32.109Z,23.83
2018-07-24T10:21:59.012Z,29.07
2018-07-24T10:24:25.909Z,20.10
2018-07-24T10:26:53.265Z,20.90
2018-07-24T10:29:20.484Z,20.10
2018-07-24T10:31:47.350Z,20.48
2018-07-24T10:34:14.170Z,18.87
2018-07-24T10:36:41.028Z,24.30
2018-07-24T10:39:08.050Z,22.13
2018-07-24T10:41:34.869Z,19.37
2018-07-24T10:44:01.693Z,16.57
2018-07-24T10:46:28.521Z,19.73
2018-07-24T10:48:55.422Z,23.03
2018-07-24T10:51:22.268Z,16.67
2018-07-24T10:53:49.118Z,17.80
2018-07-24T10:56:15.963Z,13.85
2018-07-24T10:58:42.992Z,20.75
2018-07-24T11:01:09.825Z,35.38
2018-07-24T11:03:36.663Z,32.42
2018-07-24T11:06:03.505Z,31.70
2018-07-24T11:08:30.416Z,26.67
2018-07-24T11:10:58.049Z,23.30
2018-07-24T11:13:25.131Z,23.90
2018-07-24T11:15:52.361Z,27.60
2018-07-24T11:18:19.835Z,27.43
2018-07-24T11:20:47.763Z,25.40
2018-07-24T11:23:14.812Z,24.90
2018-07-24T11:25:41.438Z,21.40
2018-07-24T11:28:08.260Z,17.47
2018-07-24T11:30:35.086Z,20.30
2018-07-24T11:33:01.971Z,15.97
2018-07-24T11:35:28.815Z,25.73
2018-07-24T11:37:55.623Z,17.60
2018-07-24T11:40:22.501Z,16.07
2018-07-24T11:42:49.586Z,16.70
2018-07-24T11:45:16.447Z,14.77
2018-07-24T11:47:43.312Z,16.47
2018-07-24T11:50:10.190Z,18.15
2018-07-24T11:52:37.179Z,19.15
2018-07-24T11:55:04.613Z,18.10
2018-07-24T11:57:31.418Z,21.40
2018-07-24T11:59:58.502Z,17.50
2018-07-24T12:02:26.406Z,27.13
2018-07-24T12:04:53.590Z,30.03
2018-07-24T12:07:20.419Z,17.20
2018-07-24T12:09:47.273Z,19.12
2018-07-24T12:12:14.103Z,18.40
2018-07-24T12:14:42.391Z,18.73
2018-07-24T12:17:09.216Z,18.43
2018-07-24T12:19:36.132Z,16.07
2018-07-24T12:22:02.935Z,20.95
2018-07-24T12:24:29.786Z,21.57
2018-07-24T12:26:56.632Z,16.37
2018-07-24T12:29:23.680Z,14.70
2018-07-24T12:31:50.529Z,16.13
2018-07-24T12:34:17.348Z,13.47
2018-07-24T12:36:44.839Z,13.50
2018-07-24T12:39:11.892Z,18.32
2018-07-24T12:41:38.686Z,14.53
2018-07-24T12:44:05.526Z,14.60
2018-07-24T12:46:32.873Z,15.60
2018-07-24T12:48:59.843Z,14.37
2018-07-24T12:51:26.738Z,16.47
2018-07-24T12:53:53.567Z,14.07
2018-07-24T12:56:20.392Z,20.17
2018-07-24T12:58:47.504Z,15.15
2018-07-24T13:01:14.529Z,13.32
2018-07-24T13:03:41.969Z,20.50
2018-07-24T13:06:09.048Z,14.05
2018-07-24T13:08:36.328Z,13.17
2018-07-24T13:11:03.303Z,13.07
2018-07-24T13:13:30.348Z,17.65
2018-07-24T13:15:57.171Z,17.97
2018-07-24T13:18:24.110Z,23.18
2018-07-24T13:20:51.081Z,20.43
2018-07-24T13:23:18.602Z,17.27
2018-07-24T13:25:45.790Z,18.00
2018-07-24T13:28:12.809Z,18.70
2018-07-24T13:30:39.871Z,17.57
2018-07-24T13:33:06.685Z,14.20
2018-07-24T13:35:33.545Z,20.70
2018-07-24T13:38:00.677Z,27.27
2018-07-24T13:40:27.670Z,26.83
2018-07-24T13:42:54.864Z,17.47
2018-07-24T13:45:22.231Z,19.03
2018-07-24T13:47:49.648Z,18.13
2018-07-24T13:50:17.700Z,17.27
2018-07-24T13:52:44.526Z,15.93
2018-07-24T13:55:11.357Z,16.17
2018-07-24T13:57:39.605Z,14.83
2018-07-24T14:00:06.740Z,14.83
2018-07-24T14:02:34.383Z,15.97
2018-07-24T14:05:01.305Z,33.73
2018-07-24T14:07:28.515Z,17.67
2018-07-24T14:09:55.755Z,18.83
2018-07-24T14:12:23.115Z,21.10
2018-07-24T14:14:50.149Z,18.00
2018-07-24T14:17:18.477Z,20.60
2018-07-24T14:19:45.315Z,20.00
2018-07-24T14:22:12.157Z,23.62
2018-07-24T14:24:39.000Z,22.22
2018-07-24T14:27:05.938Z,21.75
2018-07-24T14:29:32.878Z,18.50
2018-07-24T14:31:59.769Z,22.87
2018-07-24T14:34:26.561Z,17.80
2018-07-24T14:36:53.424Z,15.70
2018-07-24T14:39:20.344Z,17.10
2018-07-24T14:41:47.154Z,15.00
2018-07-24T14:44:13.995Z,16.70
2018-07-24T14:46:40.840Z,17.90
2018-07-24T14:49:07.847Z,18.35
2018-07-24T14:51:34.686Z,15.10
2018-07-24T14:54:01.526Z,16.35
2018-07-24T14:56:28.401Z,16.23
2018-07-24T14:58:55.420Z,17.47
2018-07-24T15:01:22.262Z,15.63
2018-07-24T15:03:49.087Z,21.90
2018-07-24T15:06:15.945Z,15.70
2018-07-24T15:08:42.800Z,17.70
2018-07-24T15:11:09.644Z,15.13
2018-07-24T15:13:36.475Z,18.80
2018-07-24T15:16:03.342Z,14.77
2018-07-24T15:18:30.154Z,15.43
2018-07-24T15:20:57.022Z,21.48
2018-07-24T15:23:23.831Z,15.20
2018-07-24T15:25:50.658Z,13.60
2018-07-24T15:28:17.489Z,18.10
2018-07-24T15:30:44.313Z,14.57
2018-07-24T15:33:11.159Z,18.10
2018-07-24T15:35:38.017Z,15.53
2018-07-24T15:38:04.834Z,13.72
2018-07-24T15:40:31.810Z,13.83
2018-07-24T15:42:58.764Z,13.67
2018-07-24T15:45:25.606Z,14.40
2018-07-24T15:47:52.443Z,13.25
2018-07-24T15:50:19.391Z,13.50
2018-07-24T15:52:46.210Z,13.48
2018-07-24T15:55:13.072Z,13.50
2018-07-24T15:57:39.918Z,13.80
2018-07-24T16:00:06.900Z,14.60
2018-07-24T16:02:33.790Z,11.77
2018-07-24T16:05:00.595Z,12.83
2018-07-24T16:07:27.441Z,12.70
2018-07-24T16:09:54.362Z,14.27
2018-07-24T16:12:21.252Z,13.00
2018-07-24T16:14:48.084Z,12.93
2018-07-24T16:17:15.349Z,12.78
2018-07-24T16:19:42.232Z,12.33
2018-07-24T16:22:09.067Z,12.50
2018-07-24T16:24:35.908Z,14.10
2018-07-24T16:27:02.743Z,11.20
2018-07-24T16:29:29.577Z,13.65
2018-07-24T16:31:56.412Z,13.30
2018-07-24T16:34:23.225Z,13.67
2018-07-24T16:36:50.056Z,14.43
2018-07-24T16:39:16.994Z,12.30
2018-07-24T16:41:43.850Z,12.90
2018-07-24T16:44:10.687Z,12.13
2018-07-24T16:46:37.523Z,12.40
2018-07-24T16:49:04.373Z,16.93
2018-07-24T16:51:31.210Z,13.03
2018-07-24T16:53:58.047Z,13.00
2018-07-24T16:56:40.650Z,11.87
2018-07-24T17:01:59.761Z,12.13
2018-07-24T17:04:29.752Z,19.07
2018-07-24T17:06:59.418Z,43.60
2018-07-24T17:09:37.145Z,31.20
2018-07-24T17:12:03.987Z,23.07
2018-07-24T17:17:08.096Z,17.70
2018-07-24T17:19:35.101Z,21.93
2018-07-24T17:22:01.935Z,18.00
2018-07-24T17:24:28.749Z,19.60
2018-07-24T17:26:55.574Z,13.88
2018-07-24T17:29:24.258Z,15.63
2018-07-24T17:31:51.110Z,15.97
2018-07-24T17:34:17.916Z,18.37
2018-07-24T17:36:44.755Z,17.90
2018-07-24T17:39:11.687Z,17.23
2018-07-24T17:41:38.521Z,17.73
2018-07-24T17:44:05.398Z,12.13
2018-07-24T17:46:32.223Z,14.73
2018-07-24T17:48:59.265Z,18.33
2018-07-24T17:51:26.110Z,14.33
2018-07-24T17:53:52.940Z,13.63
2018-07-24T17:56:19.987Z,13.20
2018-07-24T17:58:47.020Z,12.10
2018-07-24T18:01:13.855Z,17.40
2018-07-24T18:03:40.685Z,12.33
2018-07-24T18:06:07.535Z,12.17
2018-07-24T18:08:34.423Z,20.27
2018-07-24T18:11:01.247Z,13.55
2018-07-24T18:13:28.068Z,16.67
2018-07-24T18:15:55.087Z,12.23
2018-07-24T18:18:21.861Z,18.17
2018-07-24T18:20:48.716Z,14.63
2018-07-24T18:23:15.539Z,10.90
2018-07-24T18:25:42.387Z,12.90
2018-07-24T18:28:09.230Z,12.30
2018-07-24T18:30:36.164Z,11.20
2018-07-24T18:33:03.088Z,15.80
2018-07-24T18:35:29.929Z,13.70
2018-07-24T18:37:56.767Z,13.05
2018-07-24T18:40:23.774Z,12.70
2018-07-24T18:42:50.674Z,14.98
2018-07-24T18:45:18.426Z,12.30
2018-07-24T18:47:45.311Z,12.97
2018-07-24T18:50:12.175Z,16.80
2018-07-24T18:52:39.130Z,13.43
2018-07-24T18:55:06.091Z,17.27
2018-07-24T18:57:32.905Z,11.03
2018-07-24T18:59:59.748Z,12.60
2018-07-24T19:02:27.143Z,15.60
2018-07-24T19:04:53.942Z,11.63
2018-07-24T19:07:20.759Z,15.93
2018-07-24T19:09:47.726Z,20.20
2018-07-24T19:12:14.564Z,13.43
2018-07-24T19:14:41.387Z,14.23
2018-07-24T19:17:08.231Z,22.42
2018-07-24T19:19:35.108Z,12.43
2018-07-24T19:22:01.948Z,12.13
2018-07-24T19:24:28.757Z,15.73
2018-07-24T19:26:55.767Z,17.83
2018-07-24T19:29:23.003Z,11.00
2018-07-24T19:31:49.772Z,12.50
2018-07-24T19:34:16.595Z,13.47
2018-07-24T19:36:43.818Z,14.60
2018-07-24T19:39:10.672Z,12.50
2018-07-24T19:41:37.536Z,12.03
2018-07-24T19:44:04.442Z,16.97
2018-07-24T19:46:31.231Z,10.77
2018-07-24T19:48:58.263Z,10.87
2018-07-24T19:51:25.091Z,13.07
2018-07-24T19:53:51.924Z,11.37
2018-07-24T19:56:18.758Z,13.80
2018-07-24T19:58:45.835Z,12.60
2018-07-24T20:01:12.659Z,14.07
2018-07-24T20:03:39.638Z,10.10
2018-07-24T20:06:06.485Z,10.43
2018-07-24T20:08:33.410Z,10.20
2018-07-24T20:11:00.273Z,13.50
2018-07-24T20:13:27.114Z,18.70
2018-07-24T20:15:53.951Z,10.00
2018-07-24T20:18:20.827Z,10.37
2018-07-24T20:20:47.694Z,10.23
2018-07-24T20:23:14.617Z,13.67
2018-07-24T20:25:41.405Z,13.50
2018-07-24T20:28:09.269Z,10.43
2018-07-24T20:30:36.166Z,11.00
2018-07-24T20:33:02.986Z,10.90
2018-07-24T20:35:29.910Z,13.08
2018-07-24T20:37:56.743Z,11.90
2018-07-24T20:40:23.589Z,12.43
2018-07-24T20:42:50.527Z,10.53
2018-07-24T20:45:17.353Z,10.67
2018-07-24T20:47:44.207Z,10.70
2018-07-24T20:50:11.166Z,9.83
2018-07-24T20:52:37.988Z,11.10
2018-07-24T20:55:04.825Z,9.47
2018-07-24T20:57:31.850Z,10.00
2018-07-24T20:59:58.755Z,12.70
2018-07-24T21:02:25.730Z,12.57
2018-07-24T21:04:52.539Z,11.97
2018-07-24T21:07:19.350Z,11.00
2018-07-24T21:09:46.363Z,10.67
2018-07-24T21:12:13.217Z,12.37
2018-07-24T21:14:40.051Z,13.73
2018-07-24T21:17:07.049Z,13.83
2018-07-24T21:19:33.926Z,10.87
2018-07-24T21:22:00.801Z,12.30
2018-07-24T21:24:27.640Z,10.63
2018-07-24T21:26:54.451Z,11.33
2018-07-24T21:29:21.496Z,10.60
2018-07-24T21:31:48.509Z,10.97
2018-07-24T21:34:15.329Z,10.93
2018-07-24T21:36:42.161Z,12.23
2018-07-24T21:39:09.042Z,11.68
2018-07-24T21:41:35.889Z,13.28
2018-07-24T21:44:02.957Z,13.18
2018-07-24T21:46:29.773Z,12.28
2018-07-24T21:48:56.676Z,13.73
2018-07-24T21:51:23.442Z,15.80
2018-07-24T21:53:50.286Z,15.03
2018-07-24T21:56:17.126Z,12.03
2018-07-24T21:58:43.985Z,13.43
2018-07-24T22:01:10.817Z,15.97
2018-07-24T22:03:37.693Z,12.00
2018-07-24T22:06:04.517Z,12.45
2018-07-24T22:08:31.385Z,13.03
2018-07-24T22:10:58.211Z,12.65
2018-07-24T22:13:25.075Z,11.88
2018-07-24T22:15:51.901Z,11.63
2018-07-24T22:18:19.172Z,11.80
2018-07-24T22:20:45.922Z,11.30
2018-07-24T22:23:13.062Z,11.33
2018-07-24T22:25:40.472Z,16.05
2018-07-24T22:28:07.365Z,11.67
2018-07-24T22:30:34.189Z,11.57
2018-07-24T22:33:01.013Z,11.38
2018-07-24T22:35:27.939Z,11.00
2018-07-24T22:37:54.738Z,11.50
2018-07-24T22:40:21.749Z,12.33
2018-07-24T22:42:48.589Z,10.60
2018-07-24T22:45:15.457Z,12.83
2018-07-24T22:47:43.128Z,10.97
2018-07-24T22:50:10.185Z,11.53
2018-07-24T22:52:37.469Z,12.70
2018-07-24T22:55:04.338Z,11.38
2018-07-24T22:57:31.420Z,10.95
2018-07-24T22:59:58.497Z,10.80
2018-07-24T23:02:25.845Z,10.97
2018-07-24T23:04:53.464Z,11.10
2018-07-24T23:07:20.417Z,9.87
2018-07-24T23:09:47.346Z,10.90
2018-07-24T23:12:14.175Z,12.67
2018-07-24T23:14:41.017Z,9.63
2018-07-24T23:17:07.942Z,11.85
2018-07-24T23:19:36.711Z,11.48
2018-07-24T23:22:04.286Z,10.57
2018-07-24T23:24:32.156Z,11.93
2018-07-24T23:27:00.210Z,10.50
2018-07-24T23:29:27.224Z,10.47
2018-07-24T23:31:54.066Z,11.27
2018-07-24T23:34:21.179Z,11.33
2018-07-24T23:36:48.150Z,11.27
2018-07-24T23:39:14.988Z,10.40
2018-07-24T23:41:42.113Z,11.18
2018-07-24T23:44:09.220Z,13.27
2018-07-24T23:46:38.831Z,11.43
2018-07-24T23:49:05.843Z,11.30
2018-07-24T23:51:32.682Z,9.47
2018-07-24T23:53:59.804Z,11.03
2018-07-24T23:56:26.863Z,11.70
2018-07-24T23:58:53.828Z,10.10
